Time;durP1;ratioP1;P1;durP2;ratioP2;P2;SDS_P1;SDS_P2;PMS_P1;PMS_P2;Temp;Humidity;BMP_temperature;BMP_pressure;BME280_temperature;BME280_humidity;BME280_pressure;Samples;Min_cycle;Max_cycle;Signal;HPM_P1;HPM_P2
2021/12/30 00:00:23;;;;;;;12.40;9.83;;;6.20;99.90;;;;;;5082510;28;20239;-55
2021/12/30 00:02:50;;;;;;;12.52;8.85;;;6.20;99.90;;;;;;5078140;28;20196;-50
2021/12/30 00:05:15;;;;;;;11.77;8.63;;;6.20;99.90;;;;;;5081088;28;20690;-53
2021/12/30 00:07:42;;;;;;;13.37;10.27;;;6.20;99.90;;;;;;5073100;28;20256;-55
2021/12/30 00:10:09;;;;;;;11.48;8.68;;;6.20;99.90;;;;;;5076484;28;20267;-52
2021/12/30 00:12:34;;;;;;;12.38;8.75;;;6.20;99.90;;;;;;5074190;28;20276;-51
2021/12/30 00:15:01;;;;;;;12.23;8.87;;;6.30;99.90;;;;;;5071341;28;20272;-53
2021/12/30 00:17:27;;;;;;;10.25;8.60;;;6.30;99.90;;;;;;5077418;28;20240;-53
2021/12/30 00:19:52;;;;;;;12.87;9.10;;;6.40;99.90;;;;;;5078260;28;20212;-52
2021/12/30 00:22:18;;;;;;;9.80;8.47;;;6.40;99.90;;;;;;5070159;28;21034;-51
2021/12/30 00:24:43;;;;;;;11.40;8.33;;;6.50;99.90;;;;;;5052082;28;20801;-48
2021/12/30 00:27:09;;;;;;;10.80;8.77;;;6.40;99.90;;;;;;5079538;28;20179;-51
2021/12/30 00:29:36;;;;;;;12.10;9.10;;;6.50;99.90;;;;;;5056438;28;20196;-49
2021/12/30 00:32:03;;;;;;;10.98;9.00;;;6.50;99.90;;;;;;5083618;28;20178;-53
2021/12/30 00:34:29;;;;;;;12.15;9.80;;;6.50;99.90;;;;;;5076659;28;20243;-54
2021/12/30 00:36:54;;;;;;;13.40;9.40;;;6.40;99.90;;;;;;5086420;28;20638;-50
2021/12/30 00:39:20;;;;;;;12.20;9.77;;;6.40;99.90;;;;;;5075723;28;20193;-54
2021/12/30 00:41:46;;;;;;;13.33;9.73;;;6.40;99.90;;;;;;5078645;28;20623;-52
2021/12/30 00:44:12;;;;;;;14.37;9.97;;;6.50;99.90;;;;;;5071329;28;20550;-54
2021/12/30 00:46:37;;;;;;;11.23;10.03;;;6.30;99.90;;;;;;5074807;28;20689;-53
2021/12/30 00:49:03;;;;;;;13.30;9.73;;;6.20;99.90;;;;;;5077589;28;20213;-51
2021/12/30 00:51:29;;;;;;;12.67;10.73;;;6.10;99.90;;;;;;5080307;28;20200;-54
2021/12/30 00:53:55;;;;;;;13.17;10.27;;;6.10;99.90;;;;;;5063111;28;20239;-51
2021/12/30 00:56:21;;;;;;;14.93;11.23;;;6.10;99.90;;;;;;5078721;28;20570;-53
2021/12/30 00:58:46;;;;;;;15.27;10.60;;;6.10;99.90;;;;;;5076046;28;20182;-53
2021/12/30 01:01:12;;;;;;;14.60;10.30;;;6.10;99.90;;;;;;5081735;28;20207;-55
2021/12/30 01:03:38;;;;;;;12.10;9.93;;;6.10;99.90;;;;;;5074767;28;20181;-54
2021/12/30 01:06:03;;;;;;;12.63;9.07;;;6.10;99.90;;;;;;5084457;28;20283;-53
2021/12/30 01:08:29;;;;;;;12.90;10.23;;;6.20;99.90;;;;;;5080223;28;20285;-52
2021/12/30 01:10:55;;;;;;;13.57;9.90;;;6.10;99.90;;;;;;5076519;28;20188;-51
2021/12/30 01:13:25;;;;;;;11.87;9.60;;;6.20;99.90;;;;;;5083665;28;20185;-53
2021/12/30 01:15:59;;;;;;;12.18;9.35;;;6.20;99.90;;;;;;5078375;28;20272;-50
2021/12/30 01:18:43;;;;;;;14.88;9.65;;;6.30;99.90;;;;;;5074269;28;20275;-53
2021/12/30 01:21:13;;;;;;;13.73;9.57;;;6.30;99.90;;;;;;5077437;28;20226;-52
2021/12/30 01:23:41;;;;;;;12.40;9.50;;;6.40;99.90;;;;;;5078231;28;20438;-53
2021/12/30 01:26:08;;;;;;;13.27;10.32;;;6.40;99.90;;;;;;5078596;28;21312;-51
2021/12/30 01:28:34;;;;;;;13.95;10.68;;;6.40;99.90;;;;;;5068080;28;20624;-52
2021/12/30 01:31:01;;;;;;;15.73;10.77;;;6.40;99.90;;;;;;5072834;28;20205;-52
2021/12/30 01:33:27;;;;;;;15.55;11.95;;;6.30;99.90;;;;;;5071357;28;20271;-50
2021/12/30 01:35:53;;;;;;;14.50;11.52;;;6.30;99.90;;;;;;5066456;28;20296;-51
2021/12/30 01:38:19;;;;;;;14.90;11.23;;;6.30;99.90;;;;;;5062071;28;20190;-53
2021/12/30 01:40:47;;;;;;;17.13;12.50;;;6.30;99.90;;;;;;5073578;28;20201;-54
2021/12/30 01:43:13;;;;;;;17.58;11.73;;;6.20;99.90;;;;;;5067648;28;20436;-52
2021/12/30 01:45:41;;;;;;;17.02;12.80;;;6.20;99.90;;;;;;5071135;28;20671;-51
2021/12/30 01:48:07;;;;;;;19.73;13.10;;;6.20;99.90;;;;;;5059396;28;20182;-56
2021/12/30 01:50:33;;;;;;;18.45;13.23;;;6.20;99.90;;;;;;5069534;28;20581;-53
2021/12/30 01:52:59;;;;;;;16.37;12.27;;;6.30;99.90;;;;;;5072816;28;20195;-54
2021/12/30 01:55:25;;;;;;;18.00;12.67;;;6.40;99.90;;;;;;5062574;28;20186;-51
2021/12/30 01:57:51;;;;;;;15.45;12.52;;;6.40;99.90;;;;;;5078921;28;20450;-53
2021/12/30 02:00:21;;;;;;;18.23;13.00;;;6.30;99.90;;;;;;5072677;28;20208;-51
2021/12/30 02:02:47;;;;;;;17.02;12.60;;;6.40;99.90;;;;;;5065474;28;20445;-53
2021/12/30 02:05:13;;;;;;;18.97;14.17;;;6.30;99.90;;;;;;5070659;28;20177;-53
2021/12/30 02:07:39;;;;;;;22.03;14.00;;;6.30;99.90;;;;;;5065639;28;20444;-55
2021/12/30 02:10:06;;;;;;;18.00;12.97;;;6.20;99.90;;;;;;5065289;28;20185;-51
2021/12/30 02:12:34;;;;;;;17.65;12.55;;;6.20;99.90;;;;;;5073390;28;20527;-52
2021/12/30 02:15:00;;;;;;;17.52;12.98;;;6.20;99.90;;;;;;5074839;28;20537;-52
2021/12/30 02:17:26;;;;;;;17.60;13.00;;;6.30;99.90;;;;;;5076791;28;20239;-54
2021/12/30 02:19:59;;;;;;;19.65;13.43;;;6.30;99.90;;;;;;5081197;28;20504;-51
2021/12/30 02:22:26;;;;;;;22.42;14.60;;;6.40;99.90;;;;;;5076911;28;20173;-49
2021/12/30 02:24:51;;;;;;;21.88;13.90;;;6.40;99.90;;;;;;5071044;28;20702;-52
2021/12/30 02:27:17;;;;;;;20.30;13.00;;;6.40;99.90;;;;;;5063631;28;20260;-51
2021/12/30 02:29:43;;;;;;;19.77;12.87;;;6.50;99.90;;;;;;5073384;28;20440;-52
2021/12/30 02:32:09;;;;;;;20.77;13.87;;;6.50;99.90;;;;;;5079715;28;20655;-52
2021/12/30 02:34:36;;;;;;;21.43;14.47;;;6.50;99.90;;;;;;5071957;28;20190;-55
2021/12/30 02:37:03;;;;;;;19.63;14.38;;;6.50;99.90;;;;;;5066826;28;20189;-52
2021/12/30 02:39:29;;;;;;;18.73;12.95;;;6.50;99.90;;;;;;5078824;28;20200;-54
2021/12/30 02:41:55;;;;;;;19.10;14.17;;;6.50;99.90;;;;;;5074427;28;20522;-50
2021/12/30 02:44:20;;;;;;;20.43;15.00;;;6.50;99.90;;;;;;5064803;28;20441;-51
2021/12/30 02:46:50;;;;;;;21.30;14.00;;;6.40;99.90;;;;;;5055723;28;20522;-54
2021/12/30 02:49:16;;;;;;;23.47;14.73;;;6.40;99.90;;;;;;5071575;28;20189;-52
2021/12/30 02:51:41;;;;;;;20.87;14.80;;;6.40;99.90;;;;;;5075651;28;20502;-55
2021/12/30 02:54:07;;;;;;;22.67;15.20;;;6.40;99.90;;;;;;5068519;28;20185;-50
2021/12/30 02:56:33;;;;;;;21.47;14.80;;;6.40;99.90;;;;;;5076771;28;20189;-51
2021/12/30 02:58:59;;;;;;;22.50;14.40;;;6.40;99.90;;;;;;5080650;28;20205;-50
2021/12/30 03:01:30;;;;;;;21.50;15.00;;;6.40;99.90;;;;;;5077466;28;20188;-52
2021/12/30 03:03:57;;;;;;;21.13;14.65;;;6.50;99.90;;;;;;5071666;28;20197;-53
2021/12/30 03:06:23;;;;;;;24.73;14.97;;;6.50;99.90;;;;;;5079238;28;20227;-54
2021/12/30 03:08:50;;;;;;;21.53;14.93;;;6.60;99.90;;;;;;5059521;28;20440;-50
2021/12/30 03:11:18;;;;;;;20.40;13.95;;;6.60;99.90;;;;;;5062165;28;20782;-54
2021/12/30 03:13:44;;;;;;;21.97;13.83;;;6.60;99.90;;;;;;5075043;28;20272;-51
2021/12/30 03:16:23;;;;;;;21.77;15.83;;;6.70;99.90;;;;;;5066861;28;20850;-53
2021/12/30 03:18:50;;;;;;;24.48;16.08;;;6.60;99.90;;;;;;5075690;28;20443;-51
2021/12/30 03:21:19;;;;;;;22.15;14.60;;;6.60;99.90;;;;;;5078736;28;20197;-51
2021/12/30 03:23:45;;;;;;;22.47;14.90;;;6.60;99.90;;;;;;5073869;28;20221;-52
2021/12/30 03:26:12;;;;;;;22.83;15.77;;;6.60;99.90;;;;;;5068953;28;20913;-50
2021/12/30 03:28:40;;;;;;;23.38;15.82;;;6.50;99.90;;;;;;5049592;28;20921;-52
2021/12/30 03:31:06;;;;;;;24.17;14.77;;;6.50;99.90;;;;;;5069136;28;20174;-52
2021/12/30 03:33:32;;;;;;;23.80;15.50;;;6.60;99.90;;;;;;5083751;28;20192;-54
2021/12/30 03:36:00;;;;;;;25.50;16.10;;;6.60;99.90;;;;;;5058258;28;20187;-55
2021/12/30 03:38:30;;;;;;;26.65;15.52;;;6.70;99.90;;;;;;5083497;28;20536;-54
2021/12/30 03:40:56;;;;;;;21.67;15.00;;;6.70;99.90;;;;;;5076749;28;20208;-54
2021/12/30 03:43:22;;;;;;;24.33;15.83;;;6.70;99.90;;;;;;5079900;28;20913;-52
2021/12/30 03:45:47;;;;;;;21.77;15.13;;;6.70;99.90;;;;;;5072228;28;20181;-56
2021/12/30 03:48:13;;;;;;;19.93;14.23;;;6.70;99.90;;;;;;5077273;28;20194;-50
2021/12/30 03:50:43;;;;;;;23.10;15.10;;;6.80;99.90;;;;;;5079198;28;20180;-52
2021/12/30 03:53:11;;;;;;;25.40;15.93;;;6.80;99.90;;;;;;5071483;28;20435;-52
2021/12/30 03:55:36;;;;;;;22.00;14.23;;;6.80;99.90;;;;;;5071175;28;20443;-54
2021/12/30 03:58:02;;;;;;;22.33;15.03;;;6.80;99.90;;;;;;5068037;28;20450;-54
2021/12/30 04:00:32;;;;;;;23.57;14.07;;;6.90;99.90;;;;;;5076685;28;20206;-54
2021/12/30 04:02:58;;;;;;;22.10;14.00;;;6.90;99.90;;;;;;5074394;28;20439;-56
2021/12/30 04:05:24;;;;;;;22.13;14.73;;;6.90;99.90;;;;;;5071607;28;20424;-54
2021/12/30 04:07:50;;;;;;;19.30;13.60;;;7.00;99.90;;;;;;5074845;28;20224;-54
2021/12/30 04:10:19;;;;;;;21.00;13.90;;;7.00;99.90;;;;;;5076179;28;20519;-53
2021/12/30 04:12:45;;;;;;;21.73;13.30;;;7.00;99.90;;;;;;5071590;28;20446;-56
2021/12/30 04:15:11;;;;;;;20.63;14.40;;;7.00;99.90;;;;;;5078349;28;20444;-53
2021/12/30 04:17:37;;;;;;;21.80;14.97;;;7.00;99.90;;;;;;5060762;28;20241;-54
2021/12/30 04:20:10;;;;;;;19.53;13.23;;;7.00;99.90;;;;;;5067384;28;20974;-55
2021/12/30 04:22:36;;;;;;;19.43;14.10;;;7.00;99.90;;;;;;5068620;28;20515;-52
2021/12/30 04:25:03;;;;;;;19.10;13.47;;;7.00;99.90;;;;;;5076351;28;20430;-57
2021/12/30 04:27:29;;;;;;;20.47;13.80;;;7.10;99.90;;;;;;5076686;28;20428;-51
2021/12/30 04:29:54;;;;;;;22.47;14.70;;;7.10;99.90;;;;;;5078578;28;20798;-49
2021/12/30 04:32:20;;;;;;;21.60;14.70;;;7.10;99.90;;;;;;5080780;28;20609;-55
2021/12/30 04:34:45;;;;;;;21.97;13.93;;;7.10;99.90;;;;;;5076685;28;20188;-49
2021/12/30 04:37:11;;;;;;;23.10;15.17;;;7.10;99.90;;;;;;5079458;28;20182;-51
2021/12/30 04:39:36;;;;;;;21.40;15.00;;;7.10;99.90;;;;;;5077697;28;20231;-54
2021/12/30 04:42:02;;;;;;;20.50;14.33;;;7.00;99.90;;;;;;5065498;28;20174;-52
2021/12/30 04:44:28;;;;;;;19.37;13.67;;;7.10;99.90;;;;;;5080708;28;20185;-55
2021/12/30 04:46:55;;;;;;;22.50;13.83;;;7.20;99.90;;;;;;5072790;28;20260;-52
2021/12/30 04:49:22;;;;;;;24.07;14.57;;;7.10;99.90;;;;;;5074732;28;20929;-53
2021/12/30 04:51:47;;;;;;;24.70;15.00;;;7.20;99.90;;;;;;5086649;28;20420;-54
2021/12/30 04:54:13;;;;;;;26.10;15.33;;;7.10;99.90;;;;;;5072750;28;20875;-52
2021/12/30 04:56:38;;;;;;;17.17;13.30;;;7.10;99.90;;;;;;5079633;28;20239;-53
2021/12/30 04:59:04;;;;;;;22.27;14.50;;;7.10;99.90;;;;;;5075584;28;20647;-53
2021/12/30 05:01:29;;;;;;;21.90;13.80;;;7.20;99.90;;;;;;5066846;28;20223;-53
2021/12/30 05:03:55;;;;;;;21.63;14.50;;;7.20;99.90;;;;;;5075494;28;20562;-53
2021/12/30 05:06:20;;;;;;;21.40;13.90;;;7.20;99.90;;;;;;5076957;28;20182;-53
2021/12/30 05:08:46;;;;;;;21.20;14.30;;;7.10;99.90;;;;;;5079983;28;20212;-52
2021/12/30 05:11:12;;;;;;;23.77;15.47;;;7.20;99.90;;;;;;5060834;28;20257;-54
2021/12/30 05:13:38;;;;;;;21.20;14.30;;;7.20;99.90;;;;;;5071421;28;20526;-56
2021/12/30 05:16:04;;;;;;;23.10;14.57;;;7.20;99.90;;;;;;5081453;28;20296;-52
2021/12/30 05:18:31;;;;;;;17.23;12.93;;;7.20;99.90;;;;;;5061725;28;20626;-49
2021/12/30 05:20:59;;;;;;;20.13;14.30;;;7.30;99.90;;;;;;5071085;28;20489;-55
2021/12/30 05:23:25;;;;;;;22.33;14.50;;;7.30;99.90;;;;;;5072712;28;20555;-51
2021/12/30 05:25:51;;;;;;;18.87;13.20;;;7.30;99.90;;;;;;5069381;28;20515;-56
2021/12/30 05:28:16;;;;;;;20.27;13.57;;;7.30;99.90;;;;;;5075820;28;20514;-54
2021/12/30 05:30:42;;;;;;;18.57;13.00;;;7.40;99.90;;;;;;5074561;28;20256;-54
2021/12/30 05:33:08;;;;;;;22.50;13.50;;;7.40;99.90;;;;;;5077926;28;20189;-59
2021/12/30 05:35:33;;;;;;;18.40;13.13;;;7.40;99.90;;;;;;5082428;28;20650;-53
2021/12/30 05:38:01;;;;;;;17.73;12.57;;;7.40;99.90;;;;;;5080777;28;20192;-53
2021/12/30 05:40:27;;;;;;;17.60;12.87;;;7.40;99.90;;;;;;5073111;28;20214;-52
2021/12/30 05:42:52;;;;;;;19.13;13.57;;;7.40;99.90;;;;;;5078620;28;20445;-52
2021/12/30 05:45:20;;;;;;;20.47;12.40;;;7.50;99.90;;;;;;5082275;28;20250;-51
2021/12/30 05:47:46;;;;;;;18.90;13.33;;;7.50;99.90;;;;;;5074849;28;20181;-51
2021/12/30 05:50:18;;;;;;;17.80;13.07;;;7.60;99.90;;;;;;5073185;28;20432;-49
2021/12/30 05:52:45;;;;;;;18.77;13.53;;;7.60;99.90;;;;;;5070166;28;20450;-54
2021/12/30 05:55:11;;;;;;;19.17;13.47;;;7.50;99.90;;;;;;5079001;28;20472;-53
2021/12/30 05:57:37;;;;;;;19.87;13.53;;;7.60;99.90;;;;;;5078005;28;20972;-50
2021/12/30 06:00:05;;;;;;;18.70;12.90;;;7.50;99.90;;;;;;5070156;28;20474;-51
2021/12/30 06:02:30;;;;;;;19.57;13.90;;;7.50;99.90;;;;;;5069431;28;20223;-53
2021/12/30 06:04:56;;;;;;;18.37;13.77;;;7.50;99.90;;;;;;5070029;28;20464;-54
2021/12/30 06:07:21;;;;;;;21.00;14.67;;;7.60;99.90;;;;;;5058087;28;20235;-55
2021/12/30 06:09:47;;;;;;;19.80;13.87;;;7.60;99.90;;;;;;5060064;28;20189;-50
2021/12/30 06:12:12;;;;;;;18.73;13.53;;;7.60;99.90;;;;;;5059831;28;20197;-53
2021/12/30 06:14:38;;;;;;;18.27;13.07;;;7.60;99.90;;;;;;5060648;28;20235;-53
2021/12/30 06:17:04;;;;;;;17.63;12.60;;;7.60;99.90;;;;;;5060190;28;20226;-51
2021/12/30 06:19:29;;;;;;;16.97;12.90;;;7.60;99.90;;;;;;5062099;28;20459;-53
2021/12/30 06:21:55;;;;;;;18.80;13.73;;;7.70;99.90;;;;;;5072706;28;20189;-54
2021/12/30 06:24:20;;;;;;;19.07;13.10;;;7.70;99.90;;;;;;5061763;28;20186;-54
2021/12/30 06:26:46;;;;;;;18.40;12.40;;;7.70;99.90;;;;;;5069554;28;21168;-50
2021/12/30 06:29:12;;;;;;;20.70;14.33;;;7.70;99.90;;;;;;5075618;28;20186;-53
2021/12/30 06:31:40;;;;;;;18.93;13.20;;;7.70;99.90;;;;;;5080528;28;21266;-50
2021/12/30 06:34:05;;;;;;;19.70;13.20;;;7.70;99.90;;;;;;5073551;28;20174;-51
2021/12/30 06:36:31;;;;;;;14.43;8.90;;;7.70;99.90;;;;;;5073647;28;20438;-56
2021/12/30 06:38:56;;;;;;;14.63;10.67;;;7.80;99.90;;;;;;5078129;28;20209;-53
2021/12/30 06:41:22;;;;;;;14.90;10.90;;;8.00;99.90;;;;;;5075929;28;20638;-53
2021/12/30 06:43:48;;;;;;;16.97;11.10;;;8.00;99.90;;;;;;5073910;28;20765;-54
2021/12/30 06:46:14;;;;;;;12.50;8.53;;;8.00;99.90;;;;;;5063838;28;20190;-54
2021/12/30 06:48:45;;;;;;;13.97;8.80;;;8.10;99.90;;;;;;5070851;28;20624;-58
2021/12/30 06:51:13;;;;;;;13.30;9.00;;;8.20;99.90;;;;;;5076400;28;20519;-50
2021/12/30 06:53:38;;;;;;;17.23;11.80;;;8.30;99.90;;;;;;5080269;28;20440;-50
2021/12/30 06:56:04;;;;;;;11.07;8.93;;;8.30;99.90;;;;;;5075730;28;20458;-54
2021/12/30 06:58:29;;;;;;;14.73;8.57;;;8.30;99.90;;;;;;5069836;28;20186;-48
2021/12/30 07:00:55;;;;;;;14.30;8.90;;;8.30;99.90;;;;;;5077442;28;20212;-54
2021/12/30 07:03:21;;;;;;;16.80;9.70;;;8.30;99.90;;;;;;5066070;28;20276;-53
2021/12/30 07:05:46;;;;;;;13.50;10.13;;;8.30;99.90;;;;;;5059610;28;20186;-53
2021/12/30 07:08:12;;;;;;;14.73;10.47;;;8.30;99.90;;;;;;5058804;28;20197;-50
2021/12/30 07:10:38;;;;;;;16.17;11.77;;;8.30;99.90;;;;;;5057735;28;20185;-53
2021/12/30 07:13:03;;;;;;;16.30;12.40;;;8.20;99.90;;;;;;5059406;28;20263;-48
2021/12/30 07:15:29;;;;;;;18.63;12.70;;;8.20;99.90;;;;;;5060119;28;20820;-52
2021/12/30 07:17:54;;;;;;;13.77;10.70;;;8.10;99.90;;;;;;5046334;28;20234;-53
2021/12/30 07:20:20;;;;;;;17.97;12.43;;;8.10;99.90;;;;;;5038329;28;20309;-53
2021/12/30 07:22:45;;;;;;;15.43;11.70;;;8.10;99.90;;;;;;5038972;28;20220;-50
2021/12/30 07:25:16;;;;;;;18.07;12.27;;;8.10;99.90;;;;;;5039895;28;20186;-54
2021/12/30 07:27:43;;;;;;;16.10;12.80;;;8.10;99.90;;;;;;5040281;28;20201;-51
2021/12/30 07:30:11;;;;;;;15.57;11.77;;;8.10;99.90;;;;;;5038556;28;20461;-52
2021/12/30 07:32:36;;;;;;;16.47;11.00;;;8.10;99.90;;;;;;5040444;28;20440;-52
2021/12/30 07:35:02;;;;;;;18.47;13.50;;;8.20;99.90;;;;;;5038109;28;20452;-52
2021/12/30 07:37:28;;;;;;;17.87;14.43;;;8.10;99.90;;;;;;5026097;28;20198;-54
2021/12/30 07:39:53;;;;;;;20.47;15.07;;;8.10;99.90;;;;;;5039864;28;20559;-52
2021/12/30 07:42:19;;;;;;;19.17;14.30;;;8.10;99.90;;;;;;5035647;28;20235;-54
2021/12/30 07:44:44;;;;;;;19.23;13.50;;;8.20;99.90;;;;;;5039321;28;20181;-48
2021/12/30 07:47:10;;;;;;;17.00;14.00;;;8.20;99.90;;;;;;5035968;28;20193;-53
2021/12/30 07:49:36;;;;;;;16.50;13.10;;;8.20;99.90;;;;;;5044445;28;20190;-53
2021/12/30 07:52:06;;;;;;;16.47;13.33;;;8.20;99.90;;;;;;5022512;28;20554;-48
2021/12/30 07:54:32;;;;;;;19.73;13.57;;;8.20;99.90;;;;;;5048748;28;20528;-50
2021/12/30 07:56:58;;;;;;;16.80;13.37;;;8.30;99.90;;;;;;5046231;28;20524;-49
2021/12/30 07:59:24;;;;;;;18.40;14.35;;;8.40;99.90;;;;;;5046746;28;20798;-50
2021/12/30 08:01:49;;;;;;;19.20;14.40;;;8.50;99.90;;;;;;5044356;28;20183;-46
2021/12/30 08:04:15;;;;;;;18.87;15.10;;;8.60;99.90;;;;;;5043060;28;20577;-53
2021/12/30 08:06:41;;;;;;;26.50;21.67;;;8.70;99.90;;;;;;5047167;28;20175;-50
2021/12/30 08:09:06;;;;;;;15.73;12.73;;;8.80;99.90;;;;;;5050030;28;20265;-52
2021/12/30 08:11:33;;;;;;;16.83;13.40;;;8.80;99.90;;;;;;5048274;28;20924;-52
2021/12/30 08:13:59;;;;;;;19.07;15.10;;;8.90;99.90;;;;;;5049429;28;20680;-51
2021/12/30 08:16:26;;;;;;;19.30;16.00;;;9.00;99.90;;;;;;5047428;28;20515;-54
2021/12/30 08:18:51;;;;;;;17.57;14.83;;;9.10;99.90;;;;;;5062274;28;20444;-53
2021/12/30 08:21:19;;;;;;;18.00;15.60;;;9.20;99.90;;;;;;5061585;28;20513;-50
2021/12/30 08:23:45;;;;;;;16.50;14.47;;;9.20;99.90;;;;;;5062300;28;20584;-54
2021/12/30 08:26:11;;;;;;;21.50;16.58;;;9.20;99.90;;;;;;5061377;28;20426;-52
2021/12/30 08:28:36;;;;;;;18.13;14.63;;;9.20;99.90;;;;;;5061892;28;20198;-54
2021/12/30 08:31:02;;;;;;;13.73;11.67;;;9.20;99.90;;;;;;5061744;28;20256;-52
2021/12/30 08:33:28;;;;;;;15.53;11.90;;;9.20;99.90;;;;;;5063712;28;20193;-53
2021/12/30 08:35:53;;;;;;;12.17;10.63;;;9.30;99.90;;;;;;5063097;28;20190;-54
2021/12/30 08:38:19;;;;;;;14.60;10.80;;;9.40;99.90;;;;;;5063190;28;20186;-49
2021/12/30 08:40:47;;;;;;;15.00;12.77;;;9.50;99.90;;;;;;5062684;28;20213;-53
2021/12/30 08:43:16;;;;;;;12.60;11.27;;;9.70;99.90;;;;;;5063148;28;20201;-53
2021/12/30 08:45:42;;;;;;;13.70;11.23;;;9.80;99.90;;;;;;5062362;28;20454;-50
2021/12/30 08:48:08;;;;;;;13.87;11.43;;;9.90;99.90;;;;;;5062368;28;20443;-57
2021/12/30 08:50:35;;;;;;;11.40;9.90;;;10.00;99.90;;;;;;5063464;28;20448;-50
2021/12/30 08:53:00;;;;;;;14.83;10.10;;;10.00;99.90;;;;;;5078583;28;20431;-50
2021/12/30 08:55:26;;;;;;;12.73;10.47;;;10.10;99.90;;;;;;5071503;28;20470;-52
2021/12/30 08:57:52;;;;;;;14.10;11.00;;;10.20;99.90;;;;;;5076878;28;20184;-54
2021/12/30 09:00:25;;;;;;;17.87;13.70;;;10.20;99.90;;;;;;5069228;28;20927;-52
2021/12/30 09:02:55;;;;;;;15.47;10.90;;;10.30;99.90;;;;;;5082027;28;20478;-54
2021/12/30 09:05:21;;;;;;;16.10;11.53;;;10.40;99.90;;;;;;5068547;28;21328;-54
2021/12/30 09:07:47;;;;;;;14.00;10.00;;;10.50;99.90;;;;;;5055224;28;20428;-56
2021/12/30 09:10:15;;;;;;;12.77;9.60;;;10.70;99.90;;;;;;5073205;28;20504;-55
2021/12/30 09:12:43;;;;;;;11.37;10.17;;;10.80;99.90;;;;;;5080446;28;20187;-54
2021/12/30 09:15:11;;;;;;;10.90;9.47;;;10.80;99.90;;;;;;5076945;28;20463;-50
2021/12/30 09:17:37;;;;;;;12.07;9.20;;;10.80;99.90;;;;;;5066386;28;21283;-54
2021/12/30 09:20:03;;;;;;;12.77;9.20;;;10.70;99.90;;;;;;5075999;28;20474;-53
2021/12/30 09:22:28;;;;;;;12.43;10.17;;;10.70;99.90;;;;;;5077281;28;20509;-54
2021/12/30 09:24:54;;;;;;;11.70;9.50;;;10.80;99.90;;;;;;5077647;28;20844;-52
2021/12/30 09:27:20;;;;;;;11.47;9.20;;;10.80;99.90;;;;;;5061211;28;20186;-51
2021/12/30 09:29:45;;;;;;;13.93;10.40;;;10.90;99.90;;;;;;5076797;28;20234;-53
2021/12/30 09:32:11;;;;;;;14.67;11.10;;;10.90;99.90;;;;;;5065642;28;20189;-55
2021/12/30 09:34:36;;;;;;;12.00;10.20;;;10.90;99.90;;;;;;5067536;28;20188;-55
2021/12/30 09:37:02;;;;;;;11.10;8.97;;;11.00;99.90;;;;;;5076227;28;20216;-52
2021/12/30 09:39:28;;;;;;;13.27;9.70;;;11.00;99.90;;;;;;5076562;28;20216;-51
2021/12/30 09:41:54;;;;;;;11.90;9.63;;;11.10;99.90;;;;;;5070328;28;20435;-58
2021/12/30 09:44:21;;;;;;;11.50;9.17;;;11.10;99.90;;;;;;5056669;28;20197;-51
2021/12/30 09:46:47;;;;;;;10.90;9.00;;;11.20;99.90;;;;;;5077654;28;20263;-52
2021/12/30 09:49:18;;;;;;;12.10;9.73;;;11.30;99.90;;;;;;5072994;28;20863;-53
2021/12/30 09:51:43;;;;;;;9.90;8.77;;;11.40;99.90;;;;;;5078545;28;20208;-51
2021/12/30 09:54:10;;;;;;;9.00;7.70;;;11.50;99.90;;;;;;5068844;28;20436;-52
2021/12/30 09:56:36;;;;;;;13.03;11.63;;;11.60;99.90;;;;;;5069090;28;20549;-54
2021/12/30 09:59:02;;;;;;;16.57;11.67;;;11.80;99.90;;;;;;5076429;28;20432;-52
2021/12/30 10:01:28;;;;;;;14.47;12.97;;;11.90;99.90;;;;;;5080867;28;20453;-52
2021/12/30 10:03:57;;;;;;;13.63;12.23;;;12.20;99.90;;;;;;5080536;28;20281;-54
2021/12/30 10:06:23;;;;;;;14.53;11.97;;;12.50;99.90;;;;;;5075478;28;20186;-49
2021/12/30 10:09:11;;;;;;;16.83;11.80;;;12.70;99.90;;;;;;5071887;28;20760;-54
2021/12/30 10:11:48;;;;;;;13.30;11.30;;;13.00;99.90;;;;;;5066090;28;20579;-52
2021/12/30 10:14:33;;;;;;;17.50;10.63;;;13.20;99.90;;;;;;5063575;28;20454;-51
2021/12/30 10:17:19;;;;;;;14.03;11.07;;;13.40;99.90;;;;;;5070893;28;20844;-53
2021/12/30 10:19:45;;;;;;;14.10;11.40;;;13.40;99.90;;;;;;5058540;28;20489;-55
2021/12/30 10:22:13;;;;;;;13.30;11.50;;;13.40;99.90;;;;;;5077325;28;20470;-54
2021/12/30 10:24:39;;;;;;;16.03;10.30;;;13.60;99.90;;;;;;5079840;28;20439;-50
2021/12/30 10:27:05;;;;;;;12.70;11.30;;;13.40;99.90;;;;;;5070867;28;21125;-50
2021/12/30 10:29:44;;;;;;;12.73;10.73;;;13.40;99.90;;;;;;5071861;28;20441;-57
2021/12/30 10:32:18;;;;;;;13.23;11.00;;;13.50;99.90;;;;;;5067626;28;20447;-58
2021/12/30 10:35:03;;;;;;;12.70;10.83;;;13.50;99.90;;;;;;5073095;28;20447;-55
2021/12/30 10:37:29;;;;;;;14.50;10.63;;;13.40;99.90;;;;;;5061774;28;20467;-55
2021/12/30 10:39:55;;;;;;;12.20;9.50;;;13.40;99.90;;;;;;5068916;28;20853;-57
2021/12/30 10:42:21;;;;;;;12.10;8.80;;;13.40;99.90;;;;;;5061365;28;20194;-57
2021/12/30 10:44:59;;;;;;;10.00;7.50;;;13.40;99.90;;;;;;5064567;28;20185;-58
2021/12/30 10:47:27;;;;;;;9.03;7.60;;;13.20;99.90;;;;;;5060766;28;20989;-56
2021/12/30 10:50:01;;;;;;;8.70;6.93;;;13.20;99.90;;;;;;5068430;28;20431;-56
2021/12/30 10:52:27;;;;;;;8.27;7.47;;;13.20;99.90;;;;;;5060464;28;20589;-58
2021/12/30 10:54:53;;;;;;;9.03;7.60;;;13.30;99.90;;;;;;5068956;28;20502;-53
2021/12/30 10:57:19;;;;;;;6.67;5.63;;;13.30;99.90;;;;;;5050197;28;20535;-58
2021/12/30 10:59:49;;;;;;;7.40;6.30;;;13.30;99.90;;;;;;5047812;28;21049;-52
2021/12/30 11:02:17;;;;;;;6.43;5.83;;;13.30;99.90;;;;;;5067582;28;20650;-58
2021/12/30 11:04:49;;;;;;;7.40;6.37;;;13.30;99.90;;;;;;5066426;28;20439;-56
2021/12/30 11:07:17;;;;;;;7.50;6.10;;;13.30;99.90;;;;;;5066266;28;20431;-55
2021/12/30 11:09:51;;;;;;;7.27;5.40;;;13.30;99.90;;;;;;5067259;28;20443;-52
2021/12/30 11:12:27;;;;;;;7.30;5.20;;;13.20;99.90;;;;;;5067537;28;20450;-57
2021/12/30 11:14:54;;;;;;;6.00;5.33;;;13.20;99.90;;;;;;5064037;28;20445;-57
2021/12/30 11:17:23;;;;;;;9.13;6.27;;;13.30;99.90;;;;;;5080678;28;20482;-54
2021/12/30 11:19:58;;;;;;;6.30;4.60;;;13.20;99.90;;;;;;5075340;28;20531;-53
2021/12/30 11:22:26;;;;;;;5.30;4.80;;;13.30;99.90;;;;;;5073030;28;20427;-58
2021/12/30 11:24:55;;;;;;;5.67;4.03;;;13.30;99.90;;;;;;5066323;28;20435;-53
2021/12/30 11:27:22;;;;;;;4.30;3.90;;;13.20;99.90;;;;;;5052412;28;20467;-53
2021/12/30 11:29:51;;;;;;;5.70;4.60;;;13.20;99.90;;;;;;5065088;28;20502;-59
2021/12/30 11:32:20;;;;;;;4.00;3.13;;;13.20;99.90;;;;;;5083949;28;20775;-56
2021/12/30 11:34:47;;;;;;;4.47;3.40;;;13.20;99.90;;;;;;5063591;28;20508;-52
2021/12/30 11:37:14;;;;;;;4.80;3.20;;;13.20;99.90;;;;;;5071996;28;20769;-52
2021/12/30 11:39:43;;;;;;;5.20;2.90;;;13.30;99.90;;;;;;5064784;28;20468;-57
2021/12/30 11:42:47;;;;;;;3.20;2.50;;;13.30;99.90;;;;;;5054921;28;20495;-56
2021/12/30 11:45:31;;;;;;;3.27;2.40;;;13.30;99.90;;;;;;5072022;28;20488;-55
2021/12/30 11:48:05;;;;;;;3.87;2.87;;;13.50;99.90;;;;;;5075195;28;20932;-54
2021/12/30 11:50:37;;;;;;;3.93;2.53;;;13.50;99.90;;;;;;5083562;28;20415;-53
2021/12/30 11:53:11;;;;;;;3.93;2.50;;;13.50;99.90;;;;;;5071098;28;20901;-54
2021/12/30 11:55:53;;;;;;;3.13;1.93;;;13.60;99.90;;;;;;5087479;28;20438;-55
2021/12/30 11:58:28;;;;;;;3.50;2.20;;;13.60;99.90;;;;;;5064010;28;20812;-52
2021/12/30 12:01:21;;;;;;;2.10;2.00;;;13.70;99.90;;;;;;5060174;28;20524;-55
2021/12/30 12:03:52;;;;;;;3.00;2.40;;;13.80;99.90;;;;;;5064307;28;20441;-51
2021/12/30 12:06:38;;;;;;;3.83;2.37;;;13.90;99.90;;;;;;5070187;28;20420;-52
2021/12/30 12:09:07;;;;;;;6.53;2.93;;;13.80;99.90;;;;;;5062261;28;20500;-57
2021/12/30 12:11:43;;;;;;;3.40;2.13;;;13.80;99.90;;;;;;5067207;28;20432;-53
2021/12/30 12:14:16;;;;;;;3.60;2.40;;;13.90;99.90;;;;;;5061544;28;21001;-57
2021/12/30 12:16:47;;;;;;;2.50;2.27;;;13.90;99.90;;;;;;5072185;28;20460;-55
2021/12/30 12:19:14;;;;;;;3.33;2.37;;;13.90;99.90;;;;;;5061972;28;20479;-58
2021/12/30 12:21:49;;;;;;;2.83;2.30;;;14.00;99.90;;;;;;5067556;28;20419;-56
2021/12/30 12:24:20;;;;;;;3.63;2.20;;;14.00;99.90;;;;;;5068671;28;20481;-57
2021/12/30 12:26:51;;;;;;;5.97;2.20;;;14.00;99.90;;;;;;5073125;28;20431;-57
2021/12/30 12:29:28;;;;;;;3.77;1.90;;;13.90;99.90;;;;;;5076050;28;21012;-58
2021/12/30 12:32:00;;;;;;;2.73;1.70;;;14.00;99.90;;;;;;5082077;28;20411;-54
2021/12/30 12:34:33;;;;;;;2.13;1.50;;;14.00;99.90;;;;;;5073695;28;20435;-52
2021/12/30 12:36:58;;;;;;;2.30;1.70;;;14.10;99.90;;;;;;5073012;28;20424;-56
2021/12/30 12:39:38;;;;;;;1.60;1.37;;;14.00;99.90;;;;;;5068335;28;20471;-56